Time;durP1;ratioP1;P1;durP2;ratioP2;P2;SDS_P1;SDS_P2;PMS_P1;PMS_P2;Temp;Humidity;BMP_temperature;BMP_pressure;BME280_temperature;BME280_humidity;BME280_pressure;Samples;Min_cycle;Max_cycle;Signal;HPM_P1;HPM_P2
2023/07/03 00:01:42;;;;;;;14.98;4.35;;;15.90;99.90;;;;;;5055062;28;20450;-78
2023/07/03 00:04:10;;;;;;;15.57;3.92;;;16.30;99.90;;;;;;5020256;28;20095;-79
2023/07/03 00:06:37;;;;;;;13.57;4.53;;;17.40;99.90;;;;;;5039373;28;20045;-79
2023/07/03 00:09:03;;;;;;;14.68;4.63;;;15.90;99.90;;;;;;5058813;28;20148;-78
2023/07/03 00:11:29;;;;;;;14.68;4.80;;;15.90;99.90;;;;;;5052254;28;20045;-79
2023/07/03 00:13:55;;;;;;;12.25;4.55;;;17.00;99.90;;;;;;5049791;28;20416;-80
2023/07/03 00:16:20;;;;;;;13.18;5.00;;;15.90;99.90;;;;;;5065294;28;20476;-79
2023/07/03 00:18:47;;;;;;;16.63;4.80;;;15.80;99.90;;;;;;5060382;28;20424;-79
2023/07/03 00:21:13;;;;;;;20.38;4.47;;;15.90;99.90;;;;;;5043417;28;20037;-79
2023/07/03 00:23:39;;;;;;;13.63;4.80;;;15.70;99.90;;;;;;5033474;28;20064;-80
2023/07/03 00:26:05;;;;;;;16.45;4.22;;;15.80;99.90;;;;;;5054807;28;20098;-78
2023/07/03 00:28:31;;;;;;;11.35;4.38;;;15.90;99.90;;;;;;5049188;28;20054;-79
2023/07/03 00:30:57;;;;;;;14.35;4.00;;;15.90;99.90;;;;;;5044545;28;20409;-79
2023/07/03 00:33:22;;;;;;;16.80;4.10;;;15.80;99.90;;;;;;5032554;28;20060;-81
2023/07/03 00:35:48;;;;;;;17.52;5.13;;;17.20;99.90;;;;;;5044200;28;20041;-78
2023/07/03 00:38:13;;;;;;;19.75;5.03;;;15.80;99.90;;;;;;5061222;28;20043;-78
2023/07/03 00:40:39;;;;;;;12.10;3.67;;;15.80;99.90;;;;;;5049757;28;20045;-78
2023/07/03 00:43:05;;;;;;;13.57;3.67;;;15.80;99.90;;;;;;5029086;28;20100;-79
2023/07/03 00:45:32;;;;;;;10.68;3.53;;;15.80;99.90;;;;;;5037112;28;20503;-78
2023/07/03 00:47:58;;;;;;;18.90;4.15;;;15.80;99.90;;;;;;5049322;28;20052;-79
2023/07/03 00:50:25;;;;;;;15.07;4.10;;;15.80;99.90;;;;;;5048797;28;20455;-79
2023/07/03 00:52:56;;;;;;;16.40;3.53;;;16.70;99.90;;;;;;5043703;28;20049;-78
2023/07/03 00:55:22;;;;;;;13.30;4.13;;;17.20;99.90;;;;;;5038384;28;20420;-79
2023/07/03 00:57:49;;;;;;;11.40;3.72;;;17.00;99.90;;;;;;5051554;28;20061;-78
2023/07/03 01:00:15;;;;;;;16.60;3.95;;;15.90;99.90;;;;;;5041298;28;20042;-79
2023/07/03 01:03:09;;;;;;;11.38;3.22;;;15.90;99.90;;;;;;5060406;28;20136;-79
2023/07/03 01:05:45;;;;;;;11.82;3.30;;;15.90;99.90;;;;;;5040520;28;20653;-79
2023/07/03 01:08:11;;;;;;;10.20;3.92;;;15.90;99.90;;;;;;5053744;28;20041;-79
2023/07/03 01:10:39;;;;;;;15.57;3.97;;;16.00;99.90;;;;;;5048648;28;20076;-77
2023/07/03 01:13:08;;;;;;;18.35;4.20;;;15.90;99.90;;;;;;5045944;28;20119;-80
2023/07/03 01:15:38;;;;;;;16.65;4.85;;;15.90;99.90;;;;;;5045785;28;20041;-79
2023/07/03 01:18:06;;;;;;;11.05;3.83;;;15.90;99.90;;;;;;5035674;28;20041;-78
2023/07/03 01:20:38;;;;;;;10.43;3.53;;;15.90;99.90;;;;;;5042414;28;20136;-79
2023/07/03 01:23:12;;;;;;;11.65;3.72;;;15.90;99.90;;;;;;5058645;28;20489;-79
2023/07/03 01:25:41;;;;;;;13.13;3.45;;;16.00;99.90;;;;;;5043639;28;20504;-79
2023/07/03 01:28:11;;;;;;;16.50;4.28;;;16.60;99.90;;;;;;5064469;28;20051;-80
2023/07/03 01:30:38;;;;;;;17.52;3.83;;;16.00;99.90;;;;;;5041819;28;20048;-80
2023/07/03 01:33:04;;;;;;;17.48;4.28;;;15.90;99.90;;;;;;5036984;28;20133;-79
2023/07/03 01:35:31;;;;;;;12.85;3.75;;;15.90;99.90;;;;;;5043698;28;20037;-78
2023/07/03 01:38:00;;;;;;;10.18;3.33;;;15.80;99.90;;;;;;5037995;28;20455;-79
2023/07/03 01:40:27;;;;;;;13.77;3.33;;;15.80;99.90;;;;;;5034493;28;20039;-79
2023/07/03 01:42:55;;;;;;;12.80;3.60;;;15.80;99.90;;;;;;5047363;28;20037;-79
2023/07/03 01:45:21;;;;;;;14.63;3.47;;;16.00;99.90;;;;;;5035674;28;20103;-79
2023/07/03 01:47:46;;;;;;;11.00;2.97;;;15.50;99.90;;;;;;5034136;28;20484;-79
2023/07/03 01:50:17;;;;;;;12.75;3.53;;;15.60;99.90;;;;;;5029206;28;20037;-79
2023/07/03 01:52:54;;;;;;;14.02;3.15;;;15.80;99.90;;;;;;5045005;28;20086;-79
2023/07/03 01:55:50;;;;;;;10.75;3.42;;;16.40;99.90;;;;;;5025556;28;20041;-79
2023/07/03 01:58:29;;;;;;;9.40;3.03;;;15.40;99.90;;;;;;5051818;28;20053;-79
2023/07/03 02:01:04;;;;;;;10.35;3.55;;;15.30;99.90;;;;;;5037767;28;20506;-78
2023/07/03 02:03:32;;;;;;;9.90;3.47;;;15.30;99.90;;;;;;5030986;28;20041;-79
2023/07/03 02:06:02;;;;;;;10.88;3.38;;;14.20;99.90;;;;;;5029348;28;20053;-79
2023/07/03 02:08:30;;;;;;;10.88;3.38;;;15.30;99.90;;;;;;5019561;28;20049;-78
2023/07/03 02:10:56;;;;;;;10.32;3.08;;;15.30;99.90;;;;;;5030219;28;20103;-80
2023/07/03 02:13:22;;;;;;;11.60;3.13;;;15.30;99.90;;;;;;5013833;28;20100;-79
2023/07/03 02:15:47;;;;;;;10.55;3.00;;;15.30;99.90;;;;;;5017938;28;20041;-80
2023/07/03 02:18:17;;;;;;;16.23;3.92;;;15.30;99.90;;;;;;5033301;28;20044;-78
2023/07/03 02:20:45;;;;;;;9.55;2.92;;;15.00;99.90;;;;;;5034966;28;20052;-81
2023/07/03 02:23:11;;;;;;;10.98;3.03;;;15.20;99.90;;;;;;5032198;28;20047;-78
2023/07/03 02:25:36;;;;;;;13.02;2.90;;;15.20;99.90;;;;;;5012158;28;20128;-79
2023/07/03 02:28:04;;;;;;;11.55;2.60;;;15.40;99.90;;;;;;5028801;28;20053;-78
2023/07/03 02:30:30;;;;;;;9.05;2.30;;;15.20;99.90;;;;;;5033545;28;20037;-79
2023/07/03 02:32:55;;;;;;;12.50;3.20;;;15.20;99.90;;;;;;5031372;28;20041;-78
2023/07/03 02:35:21;;;;;;;10.65;2.80;;;15.20;99.90;;;;;;5031362;28;20038;-78
2023/07/03 02:37:47;;;;;;;9.32;2.35;;;15.10;99.90;;;;;;5058559;28;20052;-78
2023/07/03 02:40:13;;;;;;;15.55;3.03;;;15.10;99.90;;;;;;5043134;28;20166;-79
2023/07/03 02:42:39;;;;;;;11.95;2.58;;;15.10;99.90;;;;;;5041715;28;20068;-78
2023/07/03 02:45:07;;;;;;;12.93;2.17;;;15.00;99.90;;;;;;5054264;28;20490;-79
2023/07/03 02:47:35;;;;;;;12.48;2.53;;;15.00;99.90;;;;;;5048107;28;20429;-78
2023/07/03 02:50:01;;;;;;;9.63;1.98;;;14.90;99.90;;;;;;5024567;28;20020;-78
2023/07/03 02:52:27;;;;;;;13.82;2.30;;;14.90;99.90;;;;;;5023513;28;20045;-78
2023/07/03 02:54:52;;;;;;;9.63;2.35;;;14.80;99.90;;;;;;5053604;28;20044;-78
2023/07/03 02:57:18;;;;;;;9.20;2.15;;;14.80;99.90;;;;;;5049758;28;20415;-78
2023/07/03 02:59:43;;;;;;;9.25;1.73;;;14.80;99.90;;;;;;5052787;28;20049;-79
2023/07/03 03:02:09;;;;;;;19.10;3.17;;;14.80;99.90;;;;;;5051136;28;20045;-79
2023/07/03 03:04:35;;;;;;;13.15;2.00;;;14.80;99.90;;;;;;5045351;28;20036;-77
2023/07/03 03:07:00;;;;;;;11.93;2.33;;;14.70;99.90;;;;;;5055144;28;20041;-78
2023/07/03 03:09:26;;;;;;;8.77;2.42;;;14.70;99.90;;;;;;5037715;28;20222;-79
2023/07/03 03:11:52;;;;;;;10.65;2.38;;;14.60;99.90;;;;;;5022109;28;20114;-78
2023/07/03 03:14:17;;;;;;;9.43;1.90;;;14.60;99.90;;;;;;5052941;28;20033;-79
2023/07/03 03:16:43;;;;;;;11.23;1.90;;;14.60;99.90;;;;;;5054376;28;20037;-79
2023/07/03 03:19:09;;;;;;;8.18;1.95;;;14.60;99.90;;;;;;5063767;28;20048;-78
2023/07/03 03:21:35;;;;;;;10.85;2.25;;;14.50;99.90;;;;;;5043791;28;20500;-79
2023/07/03 03:24:02;;;;;;;6.72;1.85;;;14.50;99.90;;;;;;5029113;28;20346;-78
2023/07/03 03:26:28;;;;;;;13.80;3.55;;;14.40;99.90;;;;;;5031697;28;20052;-78
2023/07/03 03:28:54;;;;;;;10.45;2.17;;;14.40;99.90;;;;;;5028295;28;20392;-79
2023/07/03 03:31:19;;;;;;;7.30;1.80;;;14.40;99.90;;;;;;5034388;28;20414;-79
2023/07/03 03:33:45;;;;;;;12.80;1.52;;;14.40;99.90;;;;;;5014277;28;20064;-78
2023/07/03 03:36:10;;;;;;;11.70;1.67;;;14.30;99.90;;;;;;5031545;28;20516;-79
2023/07/03 03:38:36;;;;;;;11.43;2.45;;;14.30;99.90;;;;;;5041463;28;20057;-78
2023/07/03 03:41:03;;;;;;;11.93;2.47;;;14.30;99.90;;;;;;5036453;28;20044;-78
2023/07/03 03:43:29;;;;;;;11.23;2.08;;;14.20;99.90;;;;;;5048264;28;20061;-78
2023/07/03 03:46:00;;;;;;;11.45;1.90;;;15.20;99.90;;;;;;5048075;28;20472;-78
2023/07/03 03:48:27;;;;;;;9.88;1.90;;;14.20;99.90;;;;;;5042220;28;20447;-79
2023/07/03 03:50:53;;;;;;;14.52;2.20;;;14.10;99.90;;;;;;5049935;28;20162;-78
2023/07/03 03:53:19;;;;;;;9.80;1.80;;;14.10;99.90;;;;;;5059547;28;20044;-78
2023/07/03 03:55:51;;;;;;;7.68;1.95;;;14.10;99.90;;;;;;5050514;28;20469;-79
2023/07/03 03:58:18;;;;;;;10.57;1.80;;;14.00;99.90;;;;;;5051638;28;20529;-78
2023/07/03 04:00:44;;;;;;;7.35;2.15;;;14.10;99.90;;;;;;5035843;28;20046;-78
2023/07/03 04:03:10;;;;;;;11.98;2.28;;;14.10;99.90;;;;;;5044569;28;20048;-78
2023/07/03 04:05:36;;;;;;;8.10;2.05;;;14.10;99.90;;;;;;5054340;28;20489;-78
2023/07/03 04:08:02;;;;;;;12.05;2.58;;;14.10;99.90;;;;;;5057798;28;20405;-78
2023/07/03 04:10:28;;;;;;;7.10;2.35;;;14.10;99.90;;;;;;5025492;28;20056;-78
2023/07/03 04:12:54;;;;;;;7.40;1.73;;;15.40;99.90;;;;;;5060252;28;20044;-78
2023/07/03 04:15:22;;;;;;;10.48;1.92;;;14.10;99.90;;;;;;5064163;28;20044;-77
2023/07/03 04:17:48;;;;;;;11.63;2.22;;;14.00;99.90;;;;;;5056121;28;20040;-78
2023/07/03 04:20:14;;;;;;;11.93;2.22;;;14.40;99.90;;;;;;5054048;28;20044;-79
2023/07/03 04:22:43;;;;;;;14.27;2.58;;;14.10;99.90;;;;;;5055737;28;20104;-79
2023/07/03 04:25:09;;;;;;;10.48;2.25;;;14.40;99.90;;;;;;5043657;28;20506;-78
2023/07/03 04:27:35;;;;;;;14.85;2.53;;;14.10;99.90;;;;;;5032615;28;20033;-79
2023/07/03 04:30:01;;;;;;;8.80;1.90;;;14.10;99.90;;;;;;5059427;28;20037;-78
2023/07/03 04:32:27;;;;;;;10.13;2.03;;;14.10;99.90;;;;;;5067049;28;20055;-78
2023/07/03 04:34:53;;;;;;;8.65;2.70;;;14.20;99.90;;;;;;5047255;28;20037;-79
2023/07/03 04:37:19;;;;;;;13.32;1.92;;;14.20;99.90;;;;;;5032772;28;20094;-78
2023/07/03 04:39:44;;;;;;;10.82;2.00;;;14.20;99.90;;;;;;5050823;28;20041;-77
2023/07/03 04:42:13;;;;;;;5.93;1.85;;;14.20;99.90;;;;;;5046635;28;20516;-79
2023/07/03 04:44:41;;;;;;;14.85;2.38;;;14.20;99.90;;;;;;5041602;28;20432;-81
2023/07/03 04:47:08;;;;;;;12.75;2.47;;;14.30;99.90;;;;;;5053108;28;20132;-79
2023/07/03 04:49:34;;;;;;;12.38;2.22;;;14.30;99.90;;;;;;5018015;28;20045;-79
2023/07/03 04:52:00;;;;;;;10.48;2.10;;;14.30;99.90;;;;;;5025115;28;20036;-79
2023/07/03 04:54:29;;;;;;;18.92;2.90;;;14.40;99.90;;;;;;5052128;28;20107;-79
2023/07/03 04:56:54;;;;;;;9.40;2.08;;;14.40;99.90;;;;;;5062500;28;20051;-79
2023/07/03 04:59:20;;;;;;;7.32;1.85;;;14.40;99.90;;;;;;5054150;28;20040;-78
2023/07/03 05:01:46;;;;;;;8.85;2.45;;;14.40;99.90;;;;;;5044853;28;20036;-79
2023/07/03 05:04:12;;;;;;;13.23;1.92;;;14.40;99.90;;;;;;5032134;28;20504;-78
2023/07/03 05:06:38;;;;;;;8.55;1.83;;;14.40;99.90;;;;;;5045535;28;20045;-79
2023/07/03 05:09:05;;;;;;;11.23;2.17;;;14.50;99.90;;;;;;5040454;28;20065;-79
2023/07/03 05:11:32;;;;;;;8.30;1.83;;;15.40;99.90;;;;;;5056751;28;20065;-79
2023/07/03 05:13:59;;;;;;;15.88;2.92;;;14.50;99.90;;;;;;5046864;28;20041;-79
2023/07/03 05:16:25;;;;;;;9.88;2.35;;;14.50;99.90;;;;;;5034807;28;20428;-79
2023/07/03 05:18:53;;;;;;;17.40;3.08;;;14.60;99.90;;;;;;5057619;28;20037;-80
2023/07/03 05:21:19;;;;;;;13.68;2.85;;;14.60;99.90;;;;;;5056183;28;20045;-80
2023/07/03 05:23:44;;;;;;;12.40;2.22;;;14.60;99.90;;;;;;5037410;28;20041;-79
2023/07/03 05:26:10;;;;;;;11.10;2.55;;;15.80;99.90;;;;;;5032150;28;20037;-78
2023/07/03 05:28:37;;;;;;;11.95;2.45;;;14.80;99.90;;;;;;5032609;28;20040;-79
2023/07/03 05:31:03;;;;;;;14.05;3.00;;;14.80;99.90;;;;;;5032035;28;20665;-79
2023/07/03 05:33:29;;;;;;;16.88;3.38;;;14.90;99.90;;;;;;5020068;28;20257;-79
2023/07/03 05:35:59;;;;;;;13.68;3.20;;;14.90;99.90;;;;;;5032379;28;20490;-81
2023/07/03 05:38:24;;;;;;;13.30;2.00;;;15.20;99.90;;;;;;5032013;28;20040;-78
2023/07/03 05:40:50;;;;;;;12.43;2.45;;;15.00;99.90;;;;;;5037364;28;20037;-79
2023/07/03 05:43:16;;;;;;;12.63;2.13;;;15.00;99.90;;;;;;5030787;28;20096;-80
2023/07/03 05:45:42;;;;;;;11.30;1.88;;;15.00;99.90;;;;;;5032617;28;20068;-80
2023/07/03 05:48:08;;;;;;;14.95;3.00;;;15.00;99.90;;;;;;5035706;28;20488;-78
2023/07/03 05:50:34;;;;;;;13.25;2.70;;;15.00;99.90;;;;;;5042106;28;20033;-79
2023/07/03 05:52:59;;;;;;;8.23;2.47;;;15.00;99.90;;;;;;5041963;28;20039;-78
2023/07/03 05:55:25;;;;;;;12.48;2.30;;;14.90;99.90;;;;;;5045930;28;20374;-78
2023/07/03 05:57:51;;;;;;;9.98;1.80;;;14.90;99.90;;;;;;5049025;28;20053;-79
2023/07/03 06:00:17;;;;;;;8.43;2.53;;;14.90;99.90;;;;;;5011996;28;20151;-78
2023/07/03 06:02:44;;;;;;;11.15;2.50;;;15.00;99.90;;;;;;5045993;28;22008;-79
2023/07/03 06:05:11;;;;;;;10.35;2.47;;;15.00;99.90;;;;;;5045128;28;20032;-79
2023/07/03 06:07:38;;;;;;;11.20;1.98;;;15.10;99.90;;;;;;5045619;28;20045;-79
2023/07/03 06:10:04;;;;;;;12.55;2.92;;;15.40;99.90;;;;;;5061761;28;20106;-79
2023/07/03 06:12:30;;;;;;;11.27;2.20;;;15.40;99.90;;;;;;5044723;28;20414;-81
2023/07/03 06:15:01;;;;;;;7.80;1.90;;;15.50;99.90;;;;;;5033426;28;20052;-79
2023/07/03 06:17:28;;;;;;;8.45;1.90;;;15.50;99.90;;;;;;5043545;28;20037;-79
2023/07/03 06:19:54;;;;;;;7.57;1.55;;;15.50;99.90;;;;;;5069298;28;20048;-80
2023/07/03 06:22:20;;;;;;;12.02;1.90;;;15.60;99.90;;;;;;5049363;28;20040;-80
2023/07/03 06:24:46;;;;;;;8.70;2.05;;;15.60;99.90;;;;;;5058508;28;20040;-80
2023/07/03 06:27:13;;;;;;;7.75;1.75;;;15.60;99.90;;;;;;5054039;28;20124;-78
2023/07/03 06:29:39;;;;;;;8.52;1.70;;;15.70;99.90;;;;;;4703290;28;10000365;-81
2023/07/03 06:32:06;;;;;;;10.27;2.63;;;15.80;99.90;;;;;;5031203;28;20099;-80
2023/07/03 06:34:31;;;;;;;13.45;2.05;;;15.80;99.90;;;;;;5036098;28;20202;-77
2023/07/03 06:36:57;;;;;;;11.23;1.85;;;16.60;99.90;;;;;;5032336;28;20050;-76
2023/07/03 06:39:23;;;;;;;6.57;2.03;;;17.10;99.90;;;;;;5017420;28;20072;-76
2023/07/03 06:41:49;;;;;;;6.00;1.58;;;15.80;99.90;;;;;;5032949;28;20181;-76
2023/07/03 06:44:16;;;;;;;10.52;1.95;;;15.80;99.90;;;;;;5041493;28;20523;-75
2023/07/03 06:46:43;;;;;;;10.13;1.77;;;15.80;99.90;;;;;;5049231;28;20491;-76
2023/07/03 06:49:09;;;;;;;7.20;1.65;;;15.80;99.90;;;;;;5051519;28;20040;-77
2023/07/03 06:51:36;;;;;;;9.45;1.60;;;16.10;99.90;;;;;;5045360;28;20392;-77
2023/07/03 06:54:02;;;;;;;8.50;1.48;;;16.80;99.90;;;;;;5052225;28;20045;-78
2023/07/03 06:56:29;;;;;;;11.40;2.28;;;15.70;99.90;;;;;;5027020;28;20052;-78
2023/07/03 06:58:55;;;;;;;12.73;2.10;;;15.70;99.90;;;;;;5023918;28;20074;-78
2023/07/03 07:01:23;;;;;;;8.48;1.90;;;15.80;99.90;;;;;;5025085;28;20048;-78
2023/07/03 07:03:49;;;;;;;17.02;3.88;;;15.80;99.90;;;;;;5053030;28;20044;-78
2023/07/03 07:06:18;;;;;;;12.63;1.95;;;15.90;99.90;;;;;;5042415;28;20030;-79
2023/07/03 07:08:44;;;;;;;9.90;2.00;;;15.90;99.90;;;;;;5048924;28;20132;-78
2023/07/03 07:11:16;;;;;;;7.95;1.63;;;15.90;99.90;;;;;;5054176;28;20051;-79
2023/07/03 07:13:45;;;;;;;8.68;1.83;;;15.90;99.90;;;;;;5016435;28;20072;-79
2023/07/03 07:16:22;;;;;;;10.82;1.85;;;16.00;99.90;;;;;;5043315;28;20497;-78
2023/07/03 07:18:54;;;;;;;9.35;1.80;;;16.10;99.90;;;;;;5043055;28;20045;-79
2023/07/03 07:21:20;;;;;;;10.65;2.40;;;15.90;99.90;;;;;;5038208;28;20052;-77
2023/07/03 07:23:50;;;;;;;11.60;2.35;;;15.90;99.90;;;;;;5034224;28;20033;-79
2023/07/03 07:26:16;;;;;;;14.95;1.88;;;16.00;99.90;;;;;;5058282;28;20080;-79
2023/07/03 07:28:41;;;;;;;12.88;1.75;;;17.10;99.90;;;;;;5030446;28;20065;-78
2023/07/03 07:31:07;;;;;;;9.98;1.60;;;16.00;99.90;;;;;;5055058;28;20052;-78
2023/07/03 07:33:32;;;;;;;7.25;1.55;;;16.00;99.90;;;;;;5040461;28;20038;-78
2023/07/03 07:35:58;;;;;;;7.57;1.73;;;15.90;99.90;;;;;;5027070;28;20042;-82
2023/07/03 07:38:24;;;;;;;9.70;1.73;;;15.90;99.90;;;;;;5023555;28;20119;-82
2023/07/03 07:41:01;;;;;;;4.97;1.00;;;15.90;99.90;;;;;;5039807;28;20033;-82
2023/07/03 07:43:26;;;;;;;10.18;1.42;;;16.10;99.90;;;;;;4999333;28;20033;-82
2023/07/03 07:45:53;;;;;;;6.55;0.95;;;16.00;99.90;;;;;;5042647;28;20060;-83
2023/07/03 07:48:19;;;;;;;6.82;1.45;;;15.90;99.90;;;;;;5039035;28;20067;-77
2023/07/03 07:50:44;;;;;;;6.25;2.72;;;15.90;99.90;;;;;;5015728;28;20647;-81
2023/07/03 07:53:10;;;;;;;8.18;0.98;;;15.90;99.90;;;;;;5035763;28;20047;-80
2023/07/03 07:55:37;;;;;;;6.70;0.88;;;15.90;99.90;;;;;;5051723;28;20041;-82
2023/07/03 07:58:02;;;;;;;15.65;1.80;;;15.90;99.90;;;;;;5032994;28;20460;-78
2023/07/03 08:00:28;;;;;;;5.72;1.25;;;15.90;99.90;;;;;;5061681;28;20032;-82
2023/07/03 08:02:54;;;;;;;4.78;1.13;;;15.90;99.90;;;;;;5044342;28;20107;-79
2023/07/03 08:05:20;;;;;;;7.05;1.52;;;16.10;99.90;;;;;;5055767;28;20044;-80
2023/07/03 08:07:46;;;;;;;7.00;1.40;;;16.20;99.90;;;;;;5052424;28;20090;-80
2023/07/03 08:10:12;;;;;;;10.88;1.77;;;16.30;99.90;;;;;;5052712;28;20077;-77
2023/07/03 08:12:38;;;;;;;7.30;1.35;;;16.40;99.90;;;;;;5062420;28;20396;-78
2023/07/03 08:15:04;;;;;;;8.02;1.50;;;16.50;99.90;;;;;;5045282;28;20099;-79
2023/07/03 08:17:30;;;;;;;6.55;1.35;;;16.50;99.90;;;;;;5049840;28;20733;-82
2023/07/03 08:19:56;;;;;;;7.88;1.33;;;16.50;99.90;;;;;;5048056;28;20094;-82
2023/07/03 08:22:23;;;;;;;6.45;1.60;;;16.50;99.90;;;;;;5046673;28;20045;-80
2023/07/03 08:24:48;;;;;;;5.55;0.98;;;16.50;99.90;;;;;;5039505;28;20167;-81
2023/07/03 08:27:14;;;;;;;8.18;1.10;;;16.50;99.90;;;;;;5045022;28;20055;-82
2023/07/03 08:29:40;;;;;;;8.48;1.48;;;16.50;99.90;;;;;;5043483;28;20396;-79
2023/07/03 08:32:09;;;;;;;8.45;1.35;;;16.70;99.90;;;;;;5053573;28;20114;-81
2023/07/03 08:34:35;;;;;;;6.45;0.95;;;16.70;99.90;;;;;;5041676;28;20033;-80
2023/07/03 08:37:00;;;;;;;8.15;1.70;;;16.70;99.90;;;;;;5055559;28;20502;-78
2023/07/03 08:39:26;;;;;;;7.15;2.05;;;16.80;99.90;;;;;;5047728;28;20500;-80
2023/07/03 08:42:06;;;;;;;3.35;1.17;;;16.80;99.90;;;;;;5061969;28;20493;-81
2023/07/03 08:44:33;;;;;;;8.35;1.17;;;16.70;99.90;;;;;;5040107;28;20179;-81
2023/07/03 08:47:03;;;;;;;8.10;1.27;;;16.60;99.90;;;;;;5051190;28;20107;-79
2023/07/03 08:49:30;;;;;;;6.55;1.33;;;16.60;99.90;;;;;;5048887;28;20045;-80
2023/07/03 08:51:59;;;;;;;9.88;1.80;;;16.60;99.90;;;;;;5045441;28;20497;-77
2023/07/03 08:54:31;;;;;;;10.25;2.60;;;16.60;99.90;;;;;;5039587;28;20079;-79
2023/07/03 08:56:58;;;;;;;8.73;1.30;;;16.60;99.90;;;;;;5040102;28;20075;-77
2023/07/03 08:59:24;;;;;;;9.15;1.50;;;16.60;99.90;;;;;;5051121;28;20045;-79
2023/07/03 09:02:09;;;;;;;7.95;1.30;;;16.50;99.90;;;;;;5050681;28;20046;-77
2023/07/03 09:04:44;;;;;;;5.90;1.85;;;16.30;99.90;;;;;;5045105;28;20128;-77
2023/07/03 09:07:16;;;;;;;13.85;1.67;;;16.00;99.90;;;;;;5050330;28;20037;-78
2023/07/03 09:10:09;;;;;;;4.82;1.23;;;15.80;99.90;;;;;;5054428;28;20492;-77
2023/07/03 09:12:44;;;;;;;9.35;1.60;;;15.70;99.90;;;;;;5049185;28;20404;-78
2023/07/03 09:15:25;;;;;;;5.68;1.20;;;15.80;99.90;;;;;;5045936;28;20646;-79
2023/07/03 09:17:53;;;;;;;9.48;1.48;;;15.80;99.90;;;;;;5024847;28;20560;-77
2023/07/03 09:20:22;;;;;;;7.45;1.58;;;15.90;99.90;;;;;;5044543;28;20176;-77
2023/07/03 09:22:54;;;;;;;4.43;0.77;;;16.00;99.90;;;;;;5023437;28;20052;-78
2023/07/03 09:25:31;;;;;;;9.80;1.35;;;16.10;99.90;;;;;;5057065;28;20052;-79
2023/07/03 09:27:59;;;;;;;2.22;0.50;;;16.30;99.90;;;;;;5038044;28;20100;-77
2023/07/03 09:30:24;;;;;;;5.07;1.30;;;16.40;99.90;;;;;;5012564;28;20114;-78
2023/07/03 09:32:50;;;;;;;4.13;0.90;;;16.50;99.90;;;;;;5040628;28;20731;-78
2023/07/03 09:35:19;;;;;;;3.53;0.57;;;16.50;99.90;;;;;;5046146;28;20041;-76
2023/07/03 09:37:57;;;;;;;6.95;0.73;;;16.40;99.90;;;;;;5042036;28;20503;-78
2023/07/03 09:40:35;;;;;;;4.68;0.88;;;16.40;99.90;;;;;;5054569;28;20048;-77
2023/07/03 09:43:01;;;;;;;1.58;0.55;;;17.50;99.90;;;;;;5044777;28;20037;-79
2023/07/03 09:45:33;;;;;;;4.43;0.80;;;16.30;99.90;;;;;;5055031;28;20118;-79
2023/07/03 09:48:02;;;;;;;2.28;0.40;;;16.20;99.90;;;;;;5041605;28;20037;-79
2023/07/03 09:50:34;;;;;;;2.97;0.65;;;16.10;99.90;;;;;;5038698;28;20037;-79
2023/07/03 09:53:02;;;;;;;5.07;0.60;;;16.00;99.90;;;;;;5038332;28;20076;-77
2023/07/03 09:55:28;;;;;;;7.93;1.23;;;15.90;99.90;;;;;;5040363;28;20040;-76
2023/07/03 09:57:54;;;;;;;6.53;1.05;;;15.80;99.90;;;;;;5031944;28;20056;-75
2023/07/03 10:00:24;;;;;;;3.25;0.77;;;15.70;99.90;;;;;;5032055;28;20124;-76
2023/07/03 10:02:57;;;;;;;3.42;0.80;;;15.40;99.90;;;;;;5047847;28;20056;-77
2023/07/03 10:05:33;;;;;;;4.25;0.77;;;15.30;99.90;;;;;;5048834;28;20050;-76
2023/07/03 10:08:05;;;;;;;3.30;0.40;;;15.10;99.90;;;;;;5047221;28;20422;-75
2023/07/03 10:10:34;;;;;;;4.95;1.20;;;15.00;99.90;;;;;;5045978;28;20534;-76
2023/07/03 10:13:06;;;;;;;5.90;0.90;;;14.80;99.90;;;;;;5025340;28;20092;-75
2023/07/03 10:15:35;;;;;;;4.15;0.93;;;14.50;99.90;;;;;;5053081;28;20040;-76
2023/07/03 10:18:10;;;;;;;6.00;1.00;;;14.40;99.90;;;;;;5054466;28;20107;-75
2023/07/03 10:20:41;;;;;;;4.22;0.80;;;14.30;99.90;;;;;;5044031;28;20044;-76
2023/07/03 10:23:10;;;;;;;6.28;1.13;;;15.50;99.90;;;;;;5043715;28;20049;-76
2023/07/03 10:25:42;;;;;;;4.38;0.95;;;13.70;99.90;;;;;;5037889;28;20032;-76
2023/07/03 10:28:18;;;;;;;7.40;1.10;;;14.40;99.90;;;;;;5066648;28;20104;-76
2023/07/03 10:30:45;;;;;;;4.15;1.23;;;14.60;99.90;;;;;;5022227;28;20041;-77
2023/07/03 10:33:18;;;;;;;4.18;1.67;;;15.00;99.90;;;;;;5031022;28;20056;-78
2023/07/03 10:35:46;;;;;;;6.10;1.67;;;15.00;99.90;;;;;;5050783;28;20499;-79
2023/07/03 10:38:25;;;;;;;6.22;1.65;;;15.20;99.90;;;;;;5046008;28;20041;-78
2023/07/03 10:41:03;;;;;;;6.53;1.45;;;15.30;99.90;;;;;;5040711;28;20127;-77
2023/07/03 10:43:38;;;;;;;4.93;1.30;;;15.40;99.90;;;;;;5046040;28;20045;-77
2023/07/03 10:46:08;;;;;;;13.27;1.50;;;16.00;99.90;;;;;;5053177;28;20041;-78
2023/07/03 10:48:36;;;;;;;7.00;1.30;;;15.50;99.90;;;;;;5023236;28;20473;-77
2023/07/03 10:51:28;;;;;;;9.77;1.33;;;15.60;99.90;;;;;;5038844;28;20045;-76
2023/07/03 10:54:02;;;;;;;6.43;1.45;;;15.70;99.90;;;;;;5028069;28;20041;-77
2023/07/03 10:56:47;;;;;;;8.55;1.50;;;15.80;99.90;;;;;;5058359;28;20048;-73
2023/07/03 10:59:34;;;;;;;5.28;0.95;;;15.90;99.90;;;;;;5042513;28;20123;-77
2023/07/03 11:02:17;;;;;;;5.55;0.98;;;16.00;99.90;;;;;;5035863;28;20187;-80
2023/07/03 11:05:04;;;;;;;5.38;0.85;;;16.20;99.90;;;;;;5039707;28;20056;-76
2023/07/03 11:07:47;;;;;;;3.03;0.82;;;16.30;99.90;;;;;;5032598;28;20037;-83
2023/07/03 11:10:28;;;;;;;3.67;0.70;;;16.50;99.90;;;;;;5044116;28;20124;-78
2023/07/03 11:13:01;;;;;;;8.00;1.50;;;16.70;99.90;;;;;;5043389;28;20048;-78
2023/07/03 11:16:02;;;;;;;5.72;1.25;;;16.80;99.90;;;;;;5041265;28;20076;-79
2023/07/03 11:18:51;;;;;;;5.63;0.60;;;16.80;99.90;;;;;;5020121;28;20053;-78
2023/07/03 11:21:36;;;;;;;5.70;1.17;;;16.80;99.90;;;;;;5042057;28;20044;-78
2023/07/03 11:24:13;;;;;;;7.00;1.10;;;16.80;99.90;;;;;;5039000;28;20081;-78
2023/07/03 11:26:42;;;;;;;5.82;1.33;;;16.80;99.90;;;;;;5042371;28;20041;-78
2023/07/03 11:29:10;;;;;;;7.70;0.93;;;17.60;99.90;;;;;;5042115;28;20143;-79
2023/07/03 11:31:38;;;;;;;3.13;0.70;;;16.80;99.90;;;;;;5040281;28;20544;-79
2023/07/03 11:34:11;;;;;;;4.03;1.00;;;16.90;99.90;;;;;;5039849;28;20045;-78
2023/07/03 11:36:44;;;;;;;4.75;0.80;;;16.90;99.90;;;;;;5041307;28;20049;-79
2023/07/03 11:39:26;;;;;;;5.07;0.80;;;16.80;99.90;;;;;;5042388;28;20041;-77
2023/07/03 11:42:10;;;;;;;4.03;0.85;;;16.80;99.90;;;;;;5038764;28;20091;-78
2023/07/03 11:44:41;;;;;;;;;;;16.70;99.90;;;;;;5022557;28;20404;-78
2023/07/03 11:47:31;;;;;;;2.35;1.08;;;16.70;99.90;;;;;;5009252;28;20368;-80
2023/07/03 11:50:03;;;;;;;5.43;1.15;;;16.70;99.90;;;;;;5003611;28;20092;-79
2023/07/03 11:52:35;;;;;;;4.53;0.75;;;16.70;99.90;;;;;;5032970;28;20092;-80
2023/07/03 11:55:16;;;;;;;9.27;1.20;;;16.60;99.90;;;;;;5035584;28;20049;-78
2023/07/03 11:57:45;;;;;;;6.53;0.98;;;16.60;99.90;;;;;;5039772;28;20061;-78
2023/07/03 12:00:16;;;;;;;5.30;0.82;;;16.60;99.90;;;;;;5058841;28;20045;-78
2023/07/03 12:03:03;;;;;;;6.07;1.20;;;16.60;99.90;;;;;;5042536;28;20049;-79
2023/07/03 12:05:47;;;;;;;8.10;1.17;;;16.70;99.90;;;;;;5045680;28;20503;-79
2023/07/03 12:08:18;;;;;;;3.95;1.15;;;16.80;99.90;;;;;;5061516;28;20496;-79
2023/07/03 12:10:50;;;;;;;5.43;1.55;;;16.90;99.90;;;;;;5072026;28;20048;-80
2023/07/03 12:13:41;;;;;;;1.70;0.95;;;17.00;99.90;;;;;;5053307;28;20123;-80
2023/07/03 12:16:14;;;;;;;7.07;0.90;;;16.90;99.90;;;;;;5062342;28;20051;-79
2023/07/03 12:18:40;;;;;;;2.63;0.55;;;16.90;99.90;;;;;;5053570;28;20041;-77
2023/07/03 12:21:06;;;;;;;3.65;0.85;;;16.80;99.90;;;;;;5048474;28;20439;-79
2023/07/03 12:23:39;;;;;;;4.90;0.77;;;16.80;99.90;;;;;;5063815;28;20036;-78
2023/07/03 12:26:07;;;;;;;2.75;0.70;;;16.80;99.90;;;;;;5041640;28;20108;-78
2023/07/03 12:28:33;;;;;;;7.35;1.15;;;16.80;99.90;;;;;;5066354;28;20404;-79
2023/07/03 12:31:29;;;;;;;8.13;1.10;;;16.80;99.90;;;;;;5040395;28;20190;-78
2023/07/03 12:33:57;;;;;;;6.47;0.68;;;16.80;99.90;;;;;;5045785;28;20045;-79
2023/07/03 12:36:34;;;;;;;9.00;1.00;;;16.80;99.90;;;;;;5065671;28;20067;-78
2023/07/03 12:39:09;;;;;;;3.75;0.95;;;16.80;99.90;;;;;;5057175;28;20040;-79
2023/07/03 12:41:34;;;;;;;3.13;0.98;;;16.80;99.90;;;;;;5057825;28;20112;-79
2023/07/03 12:44:01;;;;;;;9.65;1.52;;;16.80;99.90;;;;;;5062893;28;20116;-78
2023/07/03 12:46:34;;;;;;;5.85;1.50;;;16.80;99.90;;;;;;5065364;28;20051;-79
2023/07/03 12:49:04;;;;;;;9.07;1.30;;;16.80;99.90;;;;;;5057374;28;20126;-79
2023/07/03 12:51:34;;;;;;;6.80;1.60;;;16.80;99.90;;;;;;5063162;28;20426;-79
2023/07/03 12:53:59;;;;;;;4.60;1.45;;;16.80;99.90;;;;;;5058501;28;20057;-78